createdAt,value
2023-02-15T00:01:56.671Z,0.40
2023-02-15T00:03:58.551Z,0.40
2023-02-15T00:06:00.347Z,0.40
2023-02-15T00:08:02.292Z,0.40
2023-02-15T00:10:04.160Z,0.40
2023-02-15T00:12:05.816Z,0.30
2023-02-15T00:14:07.533Z,0.30
2023-02-15T00:16:10.605Z,0.30
2023-02-15T00:18:12.248Z,0.30
2023-02-15T00:20:13.924Z,0.30
2023-02-15T00:22:15.501Z,0.30
2023-02-15T00:24:17.971Z,0.30
2023-02-15T00:26:19.589Z,0.30
2023-02-15T00:28:21.280Z,0.30
2023-02-15T00:30:22.988Z,0.20
2023-02-15T00:32:24.652Z,0.20
2023-02-15T00:34:27.527Z,0.20
2023-02-15T00:36:29.128Z,0.20
2023-02-15T00:38:31.426Z,0.20
2023-02-15T00:40:33.045Z,0.20
2023-02-15T00:42:34.630Z,0.30
2023-02-15T00:44:36.256Z,0.20
2023-02-15T00:46:37.860Z,0.20
2023-02-15T00:48:39.489Z,0.10
2023-02-15T00:50:41.094Z,0.20
2023-02-15T00:52:42.675Z,0.10
2023-02-15T00:54:44.314Z,0.10
2023-02-15T00:56:45.977Z,0.10
2023-02-15T00:58:47.628Z,0.00
2023-02-15T01:00:49.429Z,0.10
2023-02-15T01:02:51.128Z,0.00
2023-02-15T01:04:52.890Z,0.00
2023-02-15T01:06:54.543Z,0.00
2023-02-15T01:08:56.245Z,0.00
2023-02-15T01:10:57.959Z,0.00
2023-02-15T01:12:59.625Z,0.00
2023-02-15T01:15:01.322Z,0.00
2023-02-15T01:17:02.964Z,0.00
2023-02-15T01:19:04.666Z,0.00
2023-02-15T01:21:10.460Z,-0.10
2023-02-15T01:23:12.294Z,-0.10
2023-02-15T01:25:13.959Z,-0.20
2023-02-15T01:27:15.613Z,-0.20
2023-02-15T01:29:17.281Z,-0.20
2023-02-15T01:31:20.727Z,-0.30
2023-02-15T01:33:22.398Z,-0.20
2023-02-15T01:35:24.303Z,-0.20
2023-02-15T01:37:25.997Z,-0.30
2023-02-15T01:39:27.602Z,-0.30
2023-02-15T01:41:29.275Z,-0.30
2023-02-15T01:43:41.381Z,-0.20
2023-02-15T01:45:45.330Z,-0.20
2023-02-15T01:47:50.757Z,-0.20
2023-02-15T01:49:58.871Z,-0.30
2023-02-15T01:52:00.564Z,-0.30
2023-02-15T01:54:12.747Z,-0.30
2023-02-15T01:56:16.258Z,-0.30
2023-02-15T01:58:18.244Z,-0.30
2023-02-15T02:00:20.213Z,-0.20
2023-02-15T02:02:25.122Z,-0.30
2023-02-15T02:04:32.294Z,-0.30
2023-02-15T02:06:35.136Z,-0.30
2023-02-15T02:08:36.857Z,-0.40
2023-02-15T02:10:38.580Z,-0.30
2023-02-15T02:12:41.786Z,-0.40
2023-02-15T02:14:43.629Z,-0.40
2023-02-15T02:16:54.266Z,-0.40
2023-02-15T02:19:05.329Z,-0.40
2023-02-15T02:21:21.175Z,-0.40
2023-02-15T02:23:30.980Z,-0.40
2023-02-15T02:25:35.623Z,-0.40
2023-02-15T02:27:52.925Z,-0.40
2023-02-15T02:30:06.797Z,-0.50
2023-02-15T02:32:27.141Z,-0.50
2023-02-15T02:34:49.013Z,-0.50
2023-02-15T02:36:54.144Z,-0.50
2023-02-15T02:39:02.876Z,-0.50
2023-02-15T02:41:07.572Z,-0.50
2023-02-15T02:43:17.229Z,-0.60
2023-02-15T02:45:45.168Z,-0.60
2023-02-15T02:47:48.766Z,-0.70
2023-02-15T02:49:53.148Z,-0.70
2023-02-15T02:52:02.159Z,-0.70
2023-02-15T02:54:06.599Z,-0.60
2023-02-15T02:56:17.828Z,-0.60
2023-02-15T02:58:30.309Z,-0.70
2023-02-15T03:00:41.084Z,-0.60
2023-02-15T03:02:43.928Z,-0.60
2023-02-15T03:04:48.582Z,-0.60
2023-02-15T03:06:56.262Z,-0.60
2023-02-15T03:09:04.696Z,-0.60
2023-02-15T03:11:06.842Z,-0.70
2023-02-15T03:13:08.727Z,-0.70
2023-02-15T03:15:10.261Z,-0.70
2023-02-15T03:17:12.938Z,-0.70
2023-02-15T03:19:20.115Z,-0.70
2023-02-15T03:21:43.134Z,-0.70
2023-02-15T03:23:44.819Z,-0.70
2023-02-15T03:26:06.775Z,-0.80
2023-02-15T03:28:13.662Z,-0.90
2023-02-15T03:30:16.218Z,-0.90
2023-02-15T03:32:18.112Z,-0.80
2023-02-15T03:34:19.795Z,-0.80
2023-02-15T03:36:23.927Z,-0.80
2023-02-15T03:38:44.290Z,-0.90
2023-02-15T03:41:05.221Z,-0.90
2023-02-15T03:43:09.594Z,-0.90
2023-02-15T03:45:14.936Z,-0.90
2023-02-15T03:47:18.564Z,-0.90
2023-02-15T03:49:20.158Z,-0.90
2023-02-15T03:51:36.004Z,-1.00
2023-02-15T03:53:38.454Z,-1.00
2023-02-15T03:55:40.417Z,-0.90
2023-02-15T03:58:00.769Z,-0.90
2023-02-15T04:00:23.976Z,-0.90
2023-02-15T04:02:29.068Z,-1.00
2023-02-15T04:04:30.678Z,-1.00
2023-02-15T04:06:32.309Z,-1.00
2023-02-15T04:08:52.839Z,-1.10
2023-02-15T04:10:55.683Z,-1.10
2023-02-15T04:13:01.448Z,-1.00
2023-02-15T04:15:22.054Z,-1.00
2023-02-15T04:17:23.765Z,-1.00
2023-02-15T04:19:44.210Z,-1.00
2023-02-15T04:22:04.426Z,-1.10
2023-02-15T04:24:25.131Z,-1.00
2023-02-15T04:26:29.889Z,-1.00
2023-02-15T04:28:31.928Z,-1.10
2023-02-15T04:30:33.498Z,-1.10
2023-02-15T04:32:35.553Z,-1.20
2023-02-15T04:34:37.907Z,-1.20
2023-02-15T04:36:39.950Z,-1.20
2023-02-15T04:38:41.632Z,-1.20
2023-02-15T04:40:43.277Z,-1.20
2023-02-15T04:42:47.654Z,-1.20
2023-02-15T04:44:51.131Z,-1.20
2023-02-15T04:46:53.236Z,-1.10
2023-02-15T04:48:58.100Z,-1.10
2023-02-15T04:51:00.182Z,-1.10
2023-02-15T04:53:01.899Z,-1.10
2023-02-15T04:55:03.644Z,-1.20
2023-02-15T04:57:05.682Z,-1.30
2023-02-15T04:59:07.323Z,-1.30
2023-02-15T05:01:09.329Z,-1.30
2023-02-15T05:03:11.128Z,-1.30
2023-02-15T05:05:14.006Z,-1.20
2023-02-15T05:07:15.805Z,-1.20
2023-02-15T05:09:17.516Z,-1.20
2023-02-15T05:11:19.201Z,-1.20
2023-02-15T05:13:21.094Z,-1.30
2023-02-15T05:15:22.781Z,-1.30
2023-02-15T05:17:24.427Z,-1.30
2023-02-15T05:19:26.122Z,-1.40
2023-02-15T05:21:27.926Z,-1.30
2023-02-15T05:23:32.153Z,-1.30
2023-02-15T05:25:52.634Z,-1.30
2023-02-15T05:28:13.069Z,-1.30
2023-02-15T05:30:15.140Z,-1.30
2023-02-15T05:32:16.924Z,-1.30
2023-02-15T05:34:18.602Z,-1.40
2023-02-15T05:36:20.330Z,-1.40
2023-02-15T05:38:21.942Z,-1.40
2023-02-15T05:40:23.586Z,-1.40
2023-02-15T05:42:25.333Z,-1.40
2023-02-15T05:44:27.030Z,-1.40
2023-02-15T05:46:28.830Z,-1.30
2023-02-15T05:48:30.626Z,-1.40
2023-02-15T05:50:32.247Z,-1.40
2023-02-15T05:52:34.244Z,-1.40
2023-02-15T05:54:35.987Z,-1.40
2023-02-15T05:56:37.633Z,-1.40
2023-02-15T05:58:40.119Z,-1.50
2023-02-15T06:00:41.771Z,-1.50
2023-02-15T06:02:43.551Z,-1.50
2023-02-15T06:04:45.342Z,-1.50
2023-02-15T06:06:47.088Z,-1.50
2023-02-15T06:08:48.855Z,-1.50
2023-02-15T06:10:50.533Z,-1.50
2023-02-15T06:12:52.240Z,-1.50
2023-02-15T06:14:53.848Z,-1.50
2023-02-15T06:16:55.707Z,-1.50
2023-02-15T06:18:57.621Z,-1.50
2023-02-15T06:20:59.392Z,-1.50
2023-02-15T06:23:02.106Z,-1.50
2023-02-15T06:25:04.487Z,-1.50
2023-02-15T06:27:08.527Z,-1.50
2023-02-15T06:29:10.314Z,-1.60
2023-02-15T06:31:12.048Z,-1.60
2023-02-15T06:33:13.859Z,-1.60
2023-02-15T06:35:15.803Z,-1.60
2023-02-15T06:37:17.461Z,-1.60
2023-02-15T06:39:19.226Z,-1.60
2023-02-15T06:41:21.008Z,-1.60
2023-02-15T06:43:22.746Z,-1.60
2023-02-15T06:45:24.464Z,-1.60
2023-02-15T06:47:26.145Z,-1.60
2023-02-15T06:49:27.825Z,-1.60
2023-02-15T06:51:29.547Z,-1.60
2023-02-15T06:53:31.474Z,-1.60
2023-02-15T06:55:33.389Z,-1.60
2023-02-15T06:57:35.187Z,-1.60
2023-02-15T06:59:37.003Z,-1.60
2023-02-15T07:01:43.653Z,-1.60
2023-02-15T07:03:45.814Z,-1.60
2023-02-15T07:05:49.741Z,-1.60
2023-02-15T07:07:51.545Z,-1.60
2023-02-15T07:09:53.306Z,-1.60
2023-02-15T07:12:13.443Z,-1.60
2023-02-15T07:14:15.125Z,-1.60
2023-02-15T07:16:16.857Z,-1.50
2023-02-15T07:18:18.549Z,-1.50
2023-02-15T07:20:21.314Z,-1.50
2023-02-15T07:22:23.019Z,-1.40
2023-02-15T07:24:24.749Z,-1.30
2023-02-15T07:26:27.576Z,-1.30
2023-02-15T07:28:29.566Z,-1.30
2023-02-15T07:30:31.646Z,-1.30
2023-02-15T07:32:34.925Z,-1.30
2023-02-15T07:34:36.707Z,-1.30
2023-02-15T07:36:40.943Z,-1.20
2023-02-15T07:38:43.463Z,-1.20
2023-02-15T07:40:45.601Z,-1.10
2023-02-15T07:42:54.038Z,-1.20
2023-02-15T07:44:56.127Z,-1.10
2023-02-15T07:47:00.733Z,-1.00
2023-02-15T07:49:02.438Z,-1.00
2023-02-15T07:51:04.852Z,-1.00
2023-02-15T07:53:06.556Z,-1.00
2023-02-15T07:55:09.695Z,-0.90
2023-02-15T07:57:11.682Z,-0.90
2023-02-15T07:59:13.366Z,-0.80
2023-02-15T08:01:15.375Z,-0.80
2023-02-15T08:03:18.875Z,-0.70
2023-02-15T08:05:20.595Z,-0.70
2023-02-15T08:07:22.459Z,-0.60
2023-02-15T08:09:24.203Z,-0.50
2023-02-15T08:11:27.395Z,-0.40
2023-02-15T08:13:29.046Z,-0.40
2023-02-15T08:15:33.508Z,-0.30
2023-02-15T08:17:45.700Z,-0.20
2023-02-15T08:19:49.747Z,-0.10
2023-02-15T08:21:52.601Z,-0.10
2023-02-15T08:23:57.431Z,-0.10
2023-02-15T08:26:00.969Z,0.00
2023-02-15T08:28:02.816Z,0.00
2023-02-15T08:30:05.563Z,0.10
2023-02-15T08:32:19.823Z,0.10
2023-02-15T08:34:22.279Z,0.20
2023-02-15T08:36:27.820Z,0.20
2023-02-15T08:38:29.428Z,0.30
2023-02-15T08:40:33.131Z,0.40
2023-02-15T08:42:34.975Z,0.50
2023-02-15T08:44:36.555Z,0.50
2023-02-15T08:46:42.473Z,0.50
2023-02-15T08:48:44.524Z,0.50
2023-02-15T08:50:46.124Z,0.60
2023-02-15T08:52:47.700Z,0.70
2023-02-15T08:54:49.372Z,0.80
2023-02-15T08:56:51.074Z,0.80
2023-02-15T08:58:53.609Z,0.80
2023-02-15T09:00:55.245Z,0.80
2023-02-15T09:02:56.867Z,0.90
2023-02-15T09:04:58.495Z,1.10
2023-02-15T09:07:00.182Z,1.10
2023-02-15T09:09:01.846Z,1.20
2023-02-15T09:11:07.289Z,1.30
2023-02-15T09:13:09.092Z,1.30
2023-02-15T09:15:10.772Z,1.30
2023-02-15T09:17:14.275Z,1.50
2023-02-15T09:19:18.929Z,1.60
2023-02-15T09:21:22.553Z,1.80
2023-02-15T09:23:27.252Z,1.90
2023-02-15T09:25:29.250Z,2.00
2023-02-15T09:27:31.158Z,2.20
2023-02-15T09:29:32.880Z,2.30
2023-02-15T09:31:37.937Z,2.30
2023-02-15T09:33:40.388Z,2.50
2023-02-15T09:35:42.049Z,2.70
2023-02-15T09:37:43.823Z,2.80
2023-02-15T09:39:47.275Z,2.90
2023-02-15T09:41:52.919Z,3.10
2023-02-15T09:44:13.772Z,3.20
2023-02-15T09:46:15.477Z,3.20
2023-02-15T09:48:19.924Z,3.30
2023-02-15T09:50:36.334Z,3.40
2023-02-15T09:52:56.533Z,3.60
2023-02-15T09:55:16.679Z,3.60
2023-02-15T09:57:29.199Z,3.80
2023-02-15T09:59:51.307Z,3.90
2023-02-15T10:02:05.663Z,4.10
2023-02-15T10:04:16.536Z,4.20
2023-02-15T10:06:25.111Z,4.50
2023-02-15T10:08:40.325Z,4.60
2023-02-15T10:10:48.357Z,4.60
2023-02-15T10:13:08.812Z,4.90
2023-02-15T10:15:13.602Z,5.10
2023-02-15T10:17:21.360Z,5.20
2023-02-15T10:19:41.925Z,5.30
2023-02-15T10:21:56.433Z,5.40
2023-02-15T10:23:58.003Z,5.50
2023-02-15T10:26:12.493Z,5.70
2023-02-15T10:28:17.628Z,5.80
2023-02-15T10:30:24.837Z,6.00
2023-02-15T10:32:27.770Z,6.00
2023-02-15T10:34:40.159Z,6.00
2023-02-15T10:36:41.782Z,6.30
2023-02-15T10:38:46.277Z,6.50
2023-02-15T10:41:00.736Z,6.60
2023-02-15T10:43:14.839Z,6.80
2023-02-15T10:45:41.169Z,6.90
2023-02-15T10:47:49.101Z,7.00
2023-02-15T10:49:53.789Z,7.10
2023-02-15T10:52:14.248Z,7.40
2023-02-15T10:54:19.171Z,7.60
2023-02-15T10:56:47.245Z,7.50
2023-02-15T10:58:58.161Z,7.80
2023-02-15T11:01:21.400Z,8.00
2023-02-15T11:03:35.368Z,7.90
2023-02-15T11:05:43.188Z,7.80
2023-02-15T11:07:46.968Z,8.10
2023-02-15T11:12:20.039Z,8.50
2023-02-15T11:14:22.077Z,8.70
2023-02-15T11:16:30.441Z,8.40
2023-02-15T11:18:32.064Z,9.00
2023-02-15T11:20:46.475Z,9.30
2023-02-15T11:22:51.026Z,9.50
2023-02-15T11:24:52.978Z,9.60
2023-02-15T11:27:00.535Z,9.30
2023-02-15T11:29:11.454Z,9.50
2023-02-15T11:31:18.671Z,9.90
2023-02-15T11:33:27.491Z,10.00
2023-02-15T11:35:38.352Z,10.30
2023-02-15T11:37:52.457Z,10.50
2023-02-15T11:39:55.783Z,10.40
2023-02-15T11:41:59.985Z,10.30
2023-02-15T11:44:19.694Z,10.40
2023-02-15T11:46:22.459Z,10.70
2023-02-15T11:48:24.352Z,10.70
2023-02-15T11:50:27.603Z,10.50
2023-02-15T11:52:29.368Z,10.20
2023-02-15T11:54:33.212Z,10.50
2023-02-15T11:56:35.681Z,10.70
2023-02-15T11:58:49.607Z,10.90
2023-02-15T12:00:53.410Z,10.90
2023-02-15T12:02:58.384Z,11.20
2023-02-15T12:05:02.451Z,11.30
2023-02-15T12:07:04.089Z,11.50
2023-02-15T12:09:18.390Z,12.00
2023-02-15T12:11:23.460Z,11.90
2023-02-15T12:13:25.170Z,12.00
2023-02-15T12:15:36.268Z,11.50
2023-02-15T12:17:37.892Z,11.10
2023-02-15T12:19:41.587Z,11.90
2023-02-15T12:21:43.320Z,11.90
2023-02-15T12:23:49.349Z,11.80
2023-02-15T12:25:55.279Z,11.40
2023-02-15T12:27:57.268Z,11.40
2023-02-15T12:30:05.077Z,11.90
2023-02-15T12:32:07.656Z,11.40
2023-02-15T12:34:12.561Z,10.60
2023-02-15T12:36:18.200Z,10.60
2023-02-15T12:38:19.790Z,10.90
2023-02-15T12:40:31.324Z,10.60
2023-02-15T12:42:43.730Z,11.00
2023-02-15T12:44:54.534Z,11.80
2023-02-15T12:47:16.379Z,12.00
2023-02-15T12:49:20.855Z,11.40
2023-02-15T12:51:22.840Z,11.00
2023-02-15T12:53:35.234Z,11.80
2023-02-15T12:55:37.609Z,12.90
2023-02-15T12:57:39.253Z,13.70
2023-02-15T12:59:51.059Z,14.80
2023-02-15T13:01:56.645Z,16.50
2023-02-15T13:04:04.193Z,17.20
2023-02-15T13:06:08.410Z,16.50
2023-02-15T13:08:12.016Z,14.40
2023-02-15T13:10:22.779Z,14.20
2023-02-15T13:12:27.406Z,14.90
2023-02-15T13:14:31.538Z,16.30
2023-02-15T13:16:36.033Z,17.10
2023-02-15T13:18:37.719Z,18.10
2023-02-15T13:20:41.589Z,18.80
2023-02-15T13:22:45.809Z,18.10
2023-02-15T13:24:49.726Z,17.90
2023-02-15T13:26:57.481Z,15.40
2023-02-15T13:29:16.947Z,16.10
2023-02-15T13:31:20.149Z,16.90
2023-02-15T13:33:28.647Z,17.30
2023-02-15T13:35:43.889Z,17.10
2023-02-15T13:37:51.440Z,16.00
2023-02-15T13:40:02.460Z,15.90
2023-02-15T13:42:09.908Z,16.60
2023-02-15T13:44:17.708Z,17.00
2023-02-15T13:46:36.670Z,17.10
2023-02-15T13:48:57.258Z,16.80
2023-02-15T13:50:58.904Z,15.30
2023-02-15T13:53:24.090Z,14.80
2023-02-15T13:55:28.429Z,14.10
2023-02-15T13:57:32.924Z,13.50
2023-02-15T13:59:34.614Z,13.70
2023-02-15T14:01:39.960Z,15.10
2023-02-15T14:04:00.306Z,14.90
2023-02-15T14:06:11.197Z,15.90
2023-02-15T14:08:13.164Z,16.50
2023-02-15T14:10:21.092Z,15.90
2023-02-15T14:12:26.094Z,16.00
2023-02-15T14:14:33.921Z,14.70
2023-02-15T14:17:04.292Z,15.10
2023-02-15T14:19:26.423Z,14.50
2023-02-15T14:21:34.224Z,15.10
2023-02-15T14:23:37.214Z,15.20
2023-02-15T14:25:47.868Z,15.80
2023-02-15T14:27:51.162Z,16.50
2023-02-15T14:29:59.927Z,16.20
2023-02-15T14:32:05.588Z,15.70
2023-02-15T14:34:18.440Z,14.90
2023-02-15T14:36:21.406Z,14.70
2023-02-15T14:38:42.076Z,14.40
2023-02-15T14:41:03.893Z,15.10
2023-02-15T14:43:10.764Z,15.70
2023-02-15T14:45:12.438Z,14.70
2023-02-15T14:47:19.532Z,14.50
2023-02-15T14:49:26.306Z,14.90
2023-02-15T14:51:50.518Z,15.90
2023-02-15T14:53:52.245Z,15.40
2023-02-15T14:56:14.576Z,14.90
2023-02-15T14:58:16.210Z,14.90
2023-02-15T15:00:32.520Z,15.10
2023-02-15T15:02:49.110Z,14.90
2023-02-15T15:04:54.296Z,15.70
2023-02-15T15:07:19.055Z,15.40
2023-02-15T15:09:26.965Z,15.70
2023-02-15T15:11:42.090Z,14.90
2023-02-15T15:13:56.498Z,14.80
2023-02-15T15:16:18.124Z,15.30
2023-02-15T15:18:41.133Z,15.20
2023-02-15T15:20:52.431Z,15.20
2023-02-15T15:23:20.784Z,13.80
2023-02-15T15:25:38.880Z,13.20
2023-02-15T15:27:40.637Z,13.70
2023-02-15T15:29:42.912Z,13.20
2023-02-15T15:31:47.202Z,12.90
2023-02-15T15:34:06.526Z,12.50
2023-02-15T15:36:14.589Z,12.80
2023-02-15T15:38:35.207Z,12.50
2023-02-15T15:40:57.362Z,12.40
2023-02-15T15:43:11.298Z,12.20
2023-02-15T15:45:31.242Z,12.50
2023-02-15T15:47:44.607Z,12.30
2023-02-15T15:49:46.940Z,12.10
2023-02-15T15:51:49.353Z,12.10
2023-02-15T15:53:53.972Z,11.90
2023-02-15T15:56:01.019Z,12.00
2023-02-15T15:58:06.767Z,11.80
2023-02-15T16:00:26.775Z,11.60
2023-02-15T16:02:28.795Z,11.70
2023-02-15T16:04:31.687Z,11.30
2023-02-15T16:06:37.557Z,11.40
2023-02-15T16:08:40.884Z,11.30
2023-02-15T16:10:42.941Z,11.50
2023-02-15T16:12:47.673Z,11.30
2023-02-15T16:14:52.614Z,11.00
2023-02-15T16:16:56.593Z,10.70
2023-02-15T16:19:00.530Z,10.60
2023-02-15T16:21:02.366Z,10.40
2023-02-15T16:23:09.613Z,10.40
2023-02-15T16:25:30.213Z,10.20
2023-02-15T16:27:39.450Z,10.00
2023-02-15T16:29:41.168Z,9.90
2023-02-15T16:31:42.850Z,9.70
2023-02-15T16:33:48.682Z,9.60
2023-02-15T16:35:57.719Z,9.60
2023-02-15T16:37:59.463Z,9.50
2023-02-15T16:40:01.398Z,9.30
2023-02-15T16:42:05.257Z,9.10
2023-02-15T16:44:08.815Z,9.00
2023-02-15T16:46:16.896Z,8.80
2023-02-15T16:48:21.104Z,8.70
2023-02-15T16:50:34.290Z,8.60
2023-02-15T16:52:35.905Z,8.40
2023-02-15T16:54:37.644Z,8.30
2023-02-15T16:56:40.322Z,8.10
2023-02-15T16:58:43.397Z,8.10
2023-02-15T17:00:45.649Z,8.00
2023-02-15T17:02:56.668Z,7.80
2023-02-15T17:05:01.460Z,7.70
2023-02-15T17:07:07.579Z,7.60
2023-02-15T17:09:19.501Z,7.60
2023-02-15T17:11:22.746Z,7.50
2023-02-15T17:13:25.825Z,7.40
2023-02-15T17:15:33.588Z,7.40
2023-02-15T17:17:36.220Z,7.20
2023-02-15T17:19:51.414Z,7.20
2023-02-15T17:21:55.033Z,7.10
2023-02-15T17:24:05.645Z,7.00
2023-02-15T17:26:19.780Z,6.90
2023-02-15T17:28:23.276Z,6.90
2023-02-15T17:30:32.869Z,6.80
2023-02-15T17:32:37.124Z,6.70
2023-02-15T17:34:47.920Z,6.60
2023-02-15T17:37:12.883Z,6.60
2023-02-15T17:39:22.032Z,6.60
2023-02-15T17:41:24.465Z,6.50
2023-02-15T17:43:29.554Z,6.50
2023-02-15T17:45:33.451Z,6.40
2023-02-15T17:47:35.275Z,6.20
2023-02-15T17:49:38.188Z,6.20
2023-02-15T17:51:40.278Z,6.20
2023-02-15T17:54:02.782Z,6.10
2023-02-15T17:56:10.965Z,6.10
2023-02-15T17:58:13.632Z,6.00
2023-02-15T18:00:34.390Z,5.90
2023-02-15T18:02:54.643Z,5.80
2023-02-15T18:05:15.219Z,5.80
2023-02-15T18:07:36.707Z,5.80
2023-02-15T18:09:57.285Z,5.80
2023-02-15T18:12:00.101Z,5.80
2023-02-15T18:14:02.087Z,5.70
2023-02-15T18:16:04.359Z,5.70
2023-02-15T18:18:06.116Z,5.60
2023-02-15T18:20:15.648Z,5.60
2023-02-15T18:22:19.045Z,5.50
2023-02-15T18:24:22.101Z,5.40
2023-02-15T18:26:24.400Z,5.40
2023-02-15T18:28:26.062Z,5.30
2023-02-15T18:30:28.736Z,5.40
2023-02-15T18:32:32.845Z,5.30
2023-02-15T18:34:40.095Z,5.30
2023-02-15T18:36:45.311Z,5.30
2023-02-15T18:38:47.407Z,5.20
2023-02-15T18:40:50.829Z,5.10
2023-02-15T18:42:52.804Z,5.10
2023-02-15T18:45:02.525Z,5.10
2023-02-15T18:47:04.186Z,5.10
2023-02-15T18:49:06.504Z,5.00
2023-02-15T18:51:21.802Z,5.00
2023-02-15T18:53:23.536Z,4.90
2023-02-15T18:55:26.229Z,4.80
2023-02-15T18:57:28.488Z,4.80
2023-02-15T18:59:31.484Z,4.80
2023-02-15T19:01:33.426Z,4.80
2023-02-15T19:03:35.170Z,4.70
2023-02-15T19:05:40.597Z,4.80
2023-02-15T19:07:45.313Z,4.80
2023-02-15T19:09:48.761Z,4.70
2023-02-15T19:11:52.035Z,4.70
2023-02-15T19:13:54.122Z,4.60
2023-02-15T19:15:55.841Z,4.50
2023-02-15T19:17:57.710Z,4.40
2023-02-15T19:20:00.270Z,4.30
2023-02-15T19:22:02.418Z,4.60
2023-02-15T19:24:06.761Z,4.50
2023-02-15T19:26:10.145Z,4.40
2023-02-15T19:28:30.953Z,4.30
2023-02-15T19:30:32.808Z,4.20
2023-02-15T19:32:34.645Z,4.20
2023-02-15T19:34:36.425Z,4.10
2023-02-15T19:36:38.094Z,4.10
2023-02-15T19:38:41.151Z,4.00
2023-02-15T19:40:43.292Z,4.00
2023-02-15T19:42:45.010Z,4.00
2023-02-15T19:44:47.260Z,4.00
2023-02-15T19:46:49.071Z,4.00
2023-02-15T19:48:51.336Z,4.00
2023-02-15T19:50:53.812Z,3.90
2023-02-15T19:52:55.626Z,3.80
2023-02-15T19:54:57.590Z,3.90
2023-02-15T19:56:59.542Z,3.80
2023-02-15T19:59:01.334Z,3.70
2023-02-15T20:01:03.926Z,3.70
2023-02-15T20:03:06.120Z,3.70
2023-02-15T20:05:07.977Z,3.70
2023-02-15T20:07:30.081Z,3.60
2023-02-15T20:09:34.066Z,3.60
2023-02-15T20:11:35.782Z,3.50
2023-02-15T20:13:38.133Z,3.50
2023-02-15T20:15:42.005Z,3.50
2023-02-15T20:17:47.104Z,3.60
2023-02-15T20:19:48.994Z,3.40
2023-02-15T20:21:54.730Z,3.40
2023-02-15T20:23:56.717Z,3.30
2023-02-15T20:25:59.649Z,3.30
2023-02-15T20:28:03.634Z,3.30
2023-02-15T20:30:09.956Z,3.20
2023-02-15T20:32:16.644Z,3.10
2023-02-15T20:34:18.580Z,3.10
2023-02-15T20:36:26.719Z,3.10
2023-02-15T20:38:33.560Z,3.10
2023-02-15T20:40:35.679Z,3.10
2023-02-15T20:42:37.659Z,3.10
2023-02-15T20:44:43.839Z,3.10
2023-02-15T20:46:46.025Z,3.00
2023-02-15T20:48:49.616Z,3.10
2023-02-15T20:50:56.073Z,3.10
2023-02-15T20:53:02.717Z,3.10
2023-02-15T20:55:11.047Z,3.10
2023-02-15T20:57:13.223Z,3.00
2023-02-15T20:59:21.282Z,3.00
2023-02-15T21:01:40.207Z,2.90
2023-02-15T21:03:42.297Z,2.90
2023-02-15T21:05:45.507Z,2.90
2023-02-15T21:07:47.606Z,2.90
2023-02-15T21:09:49.665Z,2.90
2023-02-15T21:11:52.232Z,2.90
2023-02-15T21:13:54.077Z,2.80
2023-02-15T21:15:56.407Z,2.80
2023-02-15T21:17:59.106Z,2.80
2023-02-15T21:20:00.886Z,2.80
2023-02-15T21:22:02.527Z,2.70
2023-02-15T21:24:05.213Z,2.60
2023-02-15T21:26:07.600Z,2.60
2023-02-15T21:28:28.049Z,2.60
2023-02-15T21:30:30.006Z,2.60
2023-02-15T21:32:31.754Z,2.60
2023-02-15T21:34:33.579Z,2.60
2023-02-15T21:36:35.291Z,2.60
2023-02-15T21:38:37.382Z,2.50
2023-02-15T21:40:39.028Z,2.60
2023-02-15T21:42:59.666Z,2.60
2023-02-15T21:45:20.090Z,2.60
2023-02-15T21:47:48.184Z,2.50
2023-02-15T21:49:51.368Z,2.60
2023-02-15T21:52:25.886Z,2.50
2023-02-15T21:55:59.565Z,2.60
2023-02-15T22:13:32.393Z,2.40
2023-02-15T22:15:35.425Z,2.30
2023-02-15T22:17:37.972Z,2.30
2023-02-15T22:19:39.591Z,2.30
2023-02-15T22:21:41.301Z,2.30
2023-02-15T22:23:43.064Z,2.20
2023-02-15T22:25:56.013Z,2.10
2023-02-15T22:27:57.755Z,2.00
2023-02-15T22:29:59.424Z,2.00
2023-02-15T22:32:01.179Z,2.00
2023-02-15T22:34:02.974Z,1.90
2023-02-15T22:36:04.790Z,1.90
2023-02-15T22:38:06.500Z,1.90
2023-02-15T22:40:08.380Z,1.90
2023-02-15T22:42:19.708Z,1.90
2023-02-15T22:44:25.733Z,1.90
2023-02-15T22:46:27.396Z,1.90
2023-02-15T22:48:29.112Z,1.80
2023-02-15T22:50:32.061Z,1.80
2023-02-15T22:52:33.692Z,1.80
2023-02-15T22:54:35.318Z,1.80
2023-02-15T22:56:38.980Z,1.70
2023-02-15T22:58:40.816Z,1.70
2023-02-15T23:00:42.771Z,1.70
2023-02-15T23:02:44.693Z,1.70
2023-02-15T23:04:46.605Z,1.70
2023-02-15T23:06:48.369Z,1.60
2023-02-15T23:08:50.096Z,1.50
2023-02-15T23:10:54.461Z,1.50
2023-02-15T23:13:16.430Z,1.50
2023-02-15T23:15:18.088Z,1.50
2023-02-15T23:17:20.176Z,1.50
2023-02-15T23:19:21.819Z,1.60
2023-02-15T23:21:23.473Z,1.60
2023-02-15T23:23:28.073Z,1.50
2023-02-15T23:25:29.791Z,1.50
2023-02-15T23:27:50.030Z,1.50
2023-02-15T23:29:51.862Z,1.50
2023-02-15T23:31:53.848Z,1.40
2023-02-15T23:33:56.528Z,1.40
2023-02-15T23:35:58.318Z,1.40
2023-02-15T23:37:59.968Z,1.40
2023-02-15T23:40:20.324Z,1.40
2023-02-15T23:42:27.497Z,1.40
2023-02-15T23:44:30.173Z,1.40
2023-02-15T23:46:42.479Z,1.30
2023-02-15T23:48:44.027Z,1.30
2023-02-15T23:50:45.639Z,1.30
2023-02-15T23:52:47.386Z,1.30
2023-02-15T23:54:49.037Z,1.30
2023-02-15T23:56:52.387Z,1.20
2023-02-15T23:58:54.168Z,1.20
